createdAt,value
2018-08-31T00:00:34.444Z,13.8
2018-08-31T00:10:39.348Z,13.8
2018-08-31T00:35:51.704Z,13.6
2018-08-31T00:40:53.975Z,13.6
2018-08-31T00:45:56.445Z,13.6
2018-08-31T00:50:58.902Z,13.5
2018-08-31T00:56:01.347Z,13.6
2018-08-31T01:01:03.793Z,13.6
2018-08-31T01:06:06.646Z,13.6
2018-08-31T01:26:15.941Z,13.5
2018-08-31T01:41:23.272Z,13.6
2018-08-31T01:46:25.788Z,13.6
2018-08-31T01:56:30.590Z,13.6
2018-08-31T02:01:33.221Z,13.6
2018-08-31T02:11:37.886Z,13.6
2018-08-31T02:16:40.348Z,13.6
2018-08-31T02:21:42.773Z,13.6
2018-08-31T02:41:52.524Z,13.6
2018-08-31T03:02:02.321Z,13.4
2018-08-31T03:07:05.134Z,13.5
2018-08-31T03:17:09.604Z,13.4
2018-08-31T03:22:12.293Z,13.3
2018-08-31T03:27:14.960Z,13.3
2018-08-31T03:32:16.929Z,13.3
2018-08-31T03:42:21.848Z,13.3
2018-08-31T03:47:24.380Z,13.3
2018-08-31T04:02:31.693Z,13.2
2018-08-31T04:07:34.198Z,13.2
2018-08-31T04:12:36.575Z,13.2
2018-08-31T04:17:38.900Z,13.1
2018-08-31T04:27:43.817Z,13.1
2018-08-31T04:32:46.217Z,13
2018-08-31T04:42:51.951Z,13
2018-08-31T04:57:58.761Z,13.1
2018-08-31T05:13:05.747Z,13.1
2018-08-31T05:18:08.426Z,13
2018-08-31T05:33:15.504Z,13.1
2018-08-31T05:43:20.517Z,13.2
2018-08-31T05:48:22.828Z,13.3
2018-08-31T05:53:25.290Z,13.5
2018-08-31T05:58:27.707Z,13.6
2018-08-31T06:03:30.640Z,13.6
2018-08-31T06:08:32.714Z,13.7
2018-08-31T06:13:35.038Z,13.7
2018-08-31T06:18:37.468Z,13.7
2018-08-31T06:23:39.896Z,13.8
2018-08-31T06:33:44.879Z,14
2018-08-31T06:38:47.246Z,14
2018-08-31T06:43:49.681Z,13.9
2018-08-31T06:48:52.300Z,13.8
2018-08-31T06:53:54.571Z,13.8
2018-08-31T06:58:57.959Z,13.7
2018-08-31T07:03:59.670Z,13.7
2018-08-31T07:09:01.907Z,13.8
2018-08-31T07:14:04.314Z,13.9
2018-08-31T07:19:06.753Z,14
2018-08-31T07:29:11.624Z,14.2
2018-08-31T07:34:14.075Z,14.3
2018-08-31T07:39:16.513Z,14.4
2018-08-31T07:44:22.317Z,14.5
2018-08-31T07:49:21.386Z,14.4
2018-08-31T07:54:23.838Z,14.3
2018-08-31T07:59:26.294Z,14.4
2018-08-31T08:04:28.770Z,14.3
2018-08-31T08:09:31.152Z,14.3
2018-08-31T08:14:33.619Z,14.2
2018-08-31T08:19:36.189Z,14.2
2018-08-31T08:24:38.465Z,14.2
2018-08-31T08:29:40.963Z,14.4
2018-08-31T08:54:53.298Z,14.9
2018-08-31T08:59:55.606Z,15
2018-08-31T09:04:58.219Z,15.2
2018-08-31T09:10:00.825Z,15.3
2018-08-31T09:15:03.139Z,15.2
2018-08-31T09:20:05.363Z,15.2
2018-08-31T09:25:07.909Z,15.2
2018-08-31T09:30:10.200Z,15.3
2018-08-31T09:50:20.013Z,15.7
2018-08-31T09:55:22.410Z,15.8
2018-08-31T10:00:24.931Z,16
2018-08-31T10:05:27.368Z,16.1
2018-08-31T10:20:34.639Z,16.3
2018-08-31T10:25:37.315Z,16.4
2018-08-31T10:50:49.247Z,16.9
2018-08-31T11:00:54.166Z,17.2
2018-08-31T11:05:56.929Z,17.3
2018-08-31T11:10:59.232Z,17.5
2018-08-31T11:21:03.907Z,18.6
2018-08-31T11:26:06.433Z,19
2018-08-31T11:31:08.787Z,19.7
2018-08-31T11:36:11.324Z,19.7
2018-08-31T11:56:20.978Z,19.8
2018-08-31T12:01:23.580Z,19.9
2018-08-31T12:11:28.587Z,19.4
2018-08-31T12:16:30.900Z,19.5
2018-08-31T12:31:38.104Z,21
2018-08-31T12:36:40.745Z,21.6
2018-08-31T12:51:47.823Z,21.8
2018-08-31T12:56:50.354Z,21.5
2018-08-31T13:01:52.717Z,21.1
2018-08-31T13:11:57.703Z,19.7
2018-08-31T13:17:00.678Z,19.2
2018-08-31T13:22:02.483Z,18.7
2018-08-31T13:37:09.805Z,18.2
2018-08-31T13:42:12.394Z,18.1
2018-08-31T13:47:15.236Z,18.2
2018-08-31T13:52:17.117Z,18
2018-08-31T13:57:19.604Z,17.8
2018-08-31T14:02:22.193Z,17.6
2018-08-31T14:12:26.894Z,17.3
2018-08-31T14:17:29.411Z,17.2
2018-08-31T14:22:31.825Z,17.2
2018-08-31T14:27:34.255Z,17.1
2018-08-31T14:32:36.663Z,17
2018-08-31T14:37:39.117Z,16.9
2018-08-31T14:42:41.528Z,16.8
2018-08-31T14:47:44.293Z,16.8
2018-08-31T14:57:48.869Z,16.6
2018-08-31T15:17:58.648Z,16.6
2018-08-31T15:23:01.357Z,16.7
2018-08-31T15:33:05.973Z,16.7
2018-08-31T15:38:08.469Z,16.7
2018-08-31T15:43:10.844Z,16.6
2018-08-31T15:58:18.289Z,16.5
2018-08-31T16:03:21.743Z,16.4
2018-08-31T16:08:23.265Z,16.3
2018-08-31T16:18:27.910Z,16.2
2018-08-31T16:23:30.526Z,16.1
2018-08-31T16:28:33.025Z,16
2018-08-31T16:33:35.388Z,16
2018-08-31T16:38:37.789Z,15.9
2018-08-31T16:43:40.270Z,15.8
2018-08-31T16:48:42.696Z,15.8
2018-08-31T16:53:44.993Z,15.8
2018-08-31T16:58:47.541Z,15.7
2018-08-31T17:08:52.303Z,15.6
2018-08-31T17:13:54.742Z,15.6
2018-08-31T17:18:57.180Z,15.6
2018-08-31T17:23:59.630Z,15.5
2018-08-31T17:29:02.091Z,15.4
2018-08-31T17:34:04.538Z,15.5
2018-08-31T17:44:09.440Z,15.3
2018-08-31T17:49:11.824Z,15.3
2018-08-31T17:54:14.828Z,15.2
2018-08-31T18:04:19.324Z,14.9
2018-08-31T18:09:23.551Z,14.9
2018-08-31T18:19:26.488Z,14.7
2018-08-31T18:24:28.909Z,14.6
2018-08-31T18:29:31.363Z,14.6
2018-08-31T18:34:33.805Z,14.5
2018-08-31T18:39:36.257Z,14.5
2018-08-31T18:44:38.686Z,14.4
2018-08-31T18:49:41.135Z,14.5
2018-08-31T18:54:43.656Z,14.5
2018-08-31T18:59:45.999Z,14.5
2018-08-31T19:09:50.908Z,14.4
2018-08-31T19:14:53.320Z,14.4
2018-08-31T19:19:55.795Z,14.4
2018-08-31T19:24:58.313Z,14.4
2018-08-31T19:30:00.640Z,14.4
2018-08-31T19:35:03.099Z,14.4
2018-08-31T19:50:10.607Z,14.3
2018-08-31T20:10:20.196Z,14.2
2018-08-31T20:15:22.694Z,14.1
2018-08-31T20:20:25.170Z,14.1
2018-08-31T20:25:27.640Z,14.1
2018-08-31T20:35:32.354Z,14
2018-08-31T20:40:34.812Z,13.9
2018-08-31T20:45:37.241Z,13.9
2018-08-31T20:50:39.931Z,13.9
2018-08-31T21:00:44.565Z,13.9
2018-08-31T21:05:46.996Z,13.8
2018-08-31T21:20:54.356Z,13.8
2018-08-31T21:25:56.766Z,13.8
2018-08-31T21:36:01.665Z,13.8
2018-08-31T22:01:18.028Z,13.7
2018-08-31T22:06:16.291Z,13.7
2018-08-31T22:16:21.167Z,13.6
2018-08-31T22:26:26.093Z,13.5
2018-08-31T22:31:28.516Z,13.5
2018-08-31T22:41:34.615Z,13.4
2018-08-31T22:46:35.830Z,13.3
2018-08-31T22:56:42.313Z,13.3
2018-08-31T23:01:43.128Z,13.3
2018-08-31T23:11:48.016Z,13.3
2018-08-31T23:16:50.670Z,13.3
2018-08-31T23:26:55.922Z,13.2
2018-08-31T23:37:00.218Z,13.1
2018-08-31T23:52:07.750Z,12.9
2018-08-31T23:57:10.216Z,12.9
